Time;durP1;ratioP1;P1;durP2;ratioP2;P2;SDS_P1;SDS_P2;PMS_P1;PMS_P2;Temp;Humidity;BMP_temperature;BMP_pressure;BME280_temperature;BME280_humidity;BME280_pressure;Samples;Min_cycle;Max_cycle;Signal;HPM_P1;HPM_P2
2021/07/20 00:01:55;;;;;;;10.17;9.13;;;19.40;64.50;;;;;;5137842;27;20438;-75
2021/07/20 00:04:21;;;;;;;10.47;8.97;;;19.40;64.60;;;;;;5138115;27;20437;-73
2021/07/20 00:06:50;;;;;;;9.57;8.20;;;19.30;64.60;;;;;;5138026;27;20437;-74
2021/07/20 00:09:16;;;;;;;10.20;8.80;;;19.30;64.80;;;;;;5137873;27;20449;-74
2021/07/20 00:11:43;;;;;;;13.20;9.30;;;19.30;65.10;;;;;;5137863;27;20477;-74
2021/07/20 00:14:10;;;;;;;9.97;8.47;;;19.20;65.20;;;;;;5137590;27;20938;-74
2021/07/20 00:16:36;;;;;;;10.88;9.50;;;19.10;65.40;;;;;;5137420;27;20422;-74
2021/07/20 00:19:03;;;;;;;13.60;8.90;;;19.10;65.20;;;;;;5137811;27;20196;-73
2021/07/20 00:21:30;;;;;;;14.47;10.27;;;19.10;65.70;;;;;;5137653;27;20465;-73
2021/07/20 00:23:58;;;;;;;14.23;9.07;;;19.00;65.90;;;;;;5137484;27;20895;-73
2021/07/20 00:26:25;;;;;;;11.10;9.43;;;19.00;65.80;;;;;;5137673;27;20442;-74
2021/07/20 00:28:52;;;;;;;8.70;7.80;;;19.00;65.80;;;;;;5137318;27;20450;-73
2021/07/20 00:31:18;;;;;;;13.30;9.53;;;18.90;65.80;;;;;;5138022;27;20481;-73
2021/07/20 00:33:45;;;;;;;12.30;9.17;;;18.90;65.80;;;;;;5137539;27;20444;-73
2021/07/20 00:36:12;;;;;;;10.63;8.37;;;18.90;66.10;;;;;;5137800;27;20442;-73
2021/07/20 00:38:38;;;;;;;11.90;9.47;;;18.80;66.00;;;;;;5137492;27;20445;-73
2021/07/20 00:41:07;;;;;;;11.20;8.70;;;18.80;66.30;;;;;;5137323;27;20461;-73
2021/07/20 00:43:34;;;;;;;12.20;8.90;;;18.80;66.50;;;;;;5137360;27;20442;-73
2021/07/20 00:46:01;;;;;;;9.30;8.40;;;18.70;66.50;;;;;;5137479;27;20438;-73
2021/07/20 00:48:28;;;;;;;9.80;8.33;;;18.70;66.50;;;;;;5137283;27;20442;-73
2021/07/20 00:50:55;;;;;;;10.57;7.60;;;18.60;66.30;;;;;;5136159;27;20454;-73
2021/07/20 00:53:22;;;;;;;9.37;8.37;;;18.60;66.30;;;;;;5137080;27;20488;-73
2021/07/20 00:55:49;;;;;;;10.03;8.67;;;18.60;66.50;;;;;;5136792;27;21000;-73
2021/07/20 00:58:18;;;;;;;12.70;8.10;;;18.60;66.70;;;;;;5137116;27;20438;-73
2021/07/20 01:00:48;;;;;;;11.27;8.20;;;18.50;66.50;;;;;;5136967;27;20462;-73
2021/07/20 01:03:16;;;;;;;10.30;8.27;;;18.50;66.80;;;;;;5137539;27;20427;-73
2021/07/20 01:05:42;;;;;;;8.33;7.53;;;18.50;66.70;;;;;;5136919;27;20445;-73
2021/07/20 01:08:10;;;;;;;10.03;8.97;;;18.40;66.80;;;;;;5136862;27;20473;-73
2021/07/20 01:10:39;;;;;;;10.67;7.80;;;18.40;66.90;;;;;;5136586;27;20510;-74
2021/07/20 01:13:07;;;;;;;12.13;9.53;;;18.40;67.10;;;;;;5136789;27;20478;-74
2021/07/20 01:15:37;;;;;;;10.83;9.20;;;18.40;67.10;;;;;;5136797;27;20463;-73
2021/07/20 01:18:05;;;;;;;9.57;7.77;;;18.40;67.50;;;;;;5136681;27;20452;-73
2021/07/20 01:20:33;;;;;;;10.83;8.43;;;18.40;67.20;;;;;;5136240;27;20462;-73
2021/07/20 01:23:05;;;;;;;10.10;7.37;;;18.40;67.30;;;;;;5136595;27;20438;-73
2021/07/20 01:25:33;;;;;;;9.93;8.23;;;18.30;67.40;;;;;;5136573;27;20431;-73
2021/07/20 01:28:06;;;;;;;9.47;8.40;;;18.30;67.60;;;;;;5136229;27;20446;-74
2021/07/20 01:30:34;;;;;;;9.63;8.57;;;18.30;67.80;;;;;;5136343;27;20469;-74
2021/07/20 01:33:03;;;;;;;9.37;8.37;;;18.30;67.80;;;;;;5136577;27;20473;-73
2021/07/20 01:35:31;;;;;;;12.60;8.57;;;18.30;67.70;;;;;;5136344;27;20445;-73
2021/07/20 01:37:59;;;;;;;10.60;7.73;;;18.20;67.60;;;;;;5137180;27;20464;-73
2021/07/20 01:40:28;;;;;;;12.83;8.90;;;18.20;67.90;;;;;;5136149;27;20466;-73
2021/07/20 01:42:57;;;;;;;12.10;9.67;;;18.10;67.80;;;;;;5136255;27;20448;-73
2021/07/20 01:45:27;;;;;;;11.83;8.27;;;18.10;67.70;;;;;;5136136;27;20441;-74
2021/07/20 01:47:56;;;;;;;11.43;8.10;;;18.10;67.80;;;;;;5136095;27;20490;-74
2021/07/20 01:50:23;;;;;;;12.77;9.03;;;18.10;67.80;;;;;;5136289;27;20469;-74
2021/07/20 01:52:50;;;;;;;15.70;8.50;;;18.00;67.60;;;;;;5135615;27;20477;-74
2021/07/20 01:55:18;;;;;;;13.80;9.30;;;18.00;67.80;;;;;;5135976;27;20453;-74
2021/07/20 01:57:45;;;;;;;14.80;8.40;;;18.00;68.10;;;;;;5135855;27;20442;-74
2021/07/20 02:00:16;;;;;;;9.67;7.80;;;18.00;68.20;;;;;;5135436;27;20839;-74
2021/07/20 02:08:25;;;;;;;14.10;8.43;;;17.80;68.10;;;;;;5135826;27;20398;-75
2021/07/20 02:10:55;;;;;;;9.30;8.40;;;17.80;68.40;;;;;;5135259;27;21025;-74
2021/07/20 02:13:24;;;;;;;10.07;8.50;;;17.70;68.40;;;;;;5135198;27;20484;-74
2021/07/20 02:15:55;;;;;;;9.77;8.30;;;17.70;68.40;;;;;;5135546;27;20441;-74
2021/07/20 02:18:24;;;;;;;12.37;9.30;;;17.70;68.80;;;;;;5135512;27;20823;-74
2021/07/20 02:20:52;;;;;;;10.40;8.70;;;17.70;68.90;;;;;;5135362;27;20462;-74
2021/07/20 02:23:31;;;;;;;13.53;9.23;;;17.70;69.00;;;;;;5091643;28;20872;-74
2021/07/20 02:25:58;;;;;;;10.50;9.07;;;17.70;69.30;;;;;;5091184;28;20424;-74
2021/07/20 02:28:27;;;;;;;13.57;10.10;;;17.70;69.50;;;;;;5091128;28;20436;-74
2021/07/20 02:30:54;;;;;;;12.53;9.97;;;17.70;69.60;;;;;;5090572;28;20920;-74
2021/07/20 02:33:22;;;;;;;11.00;8.83;;;17.70;69.70;;;;;;5090922;28;20436;-74
2021/07/20 02:35:50;;;;;;;12.10;10.43;;;17.70;69.70;;;;;;5090872;28;20447;-74
2021/07/20 02:38:18;;;;;;;12.67;9.40;;;17.70;69.70;;;;;;5091465;28;20444;-74
2021/07/20 02:40:46;;;;;;;12.70;10.13;;;17.70;69.80;;;;;;5090897;28;20456;-74
2021/07/20 02:43:15;;;;;;;12.10;8.93;;;17.60;69.60;;;;;;5090789;28;20480;-74
2021/07/20 02:45:43;;;;;;;10.10;8.93;;;17.60;69.30;;;;;;5090843;28;20448;-74
2021/07/20 02:48:10;;;;;;;13.63;10.10;;;17.60;69.40;;;;;;5090673;28;20509;-74
2021/07/20 02:50:37;;;;;;;14.27;9.20;;;17.50;69.50;;;;;;5090516;28;20993;-74
2021/07/20 02:53:05;;;;;;;13.07;9.07;;;17.50;69.30;;;;;;5090554;28;20440;-74
2021/07/20 02:55:32;;;;;;;13.70;9.87;;;17.50;69.40;;;;;;5090467;28;20520;-74
2021/07/20 02:58:01;;;;;;;10.47;8.70;;;17.50;69.40;;;;;;5090474;28;20440;-74
2021/07/20 03:00:29;;;;;;;10.73;8.50;;;17.40;69.40;;;;;;5090353;28;20491;-74
2021/07/20 03:02:56;;;;;;;13.87;9.77;;;17.40;69.80;;;;;;5090330;28;20479;-74
2021/07/20 03:05:23;;;;;;;11.13;8.47;;;17.40;69.70;;;;;;5090327;28;20447;-74
2021/07/20 03:07:54;;;;;;;12.00;10.07;;;17.40;69.90;;;;;;5089908;28;20948;-74
2021/07/20 03:10:22;;;;;;;15.50;8.90;;;17.40;69.80;;;;;;5090163;28;20467;-74
2021/07/20 03:12:50;;;;;;;12.90;10.10;;;17.40;69.80;;;;;;5090142;28;20443;-74
2021/07/20 03:15:18;;;;;;;12.60;9.57;;;17.30;70.00;;;;;;5089863;28;20447;-74
2021/07/20 03:17:47;;;;;;;13.17;8.80;;;17.20;70.20;;;;;;5090087;28;20432;-74
2021/07/20 03:20:16;;;;;;;11.40;8.77;;;17.20;70.50;;;;;;5089947;28;20463;-74
2021/07/20 03:22:44;;;;;;;13.67;8.80;;;17.10;70.30;;;;;;5089668;28;20492;-74
2021/07/20 03:25:12;;;;;;;10.20;8.33;;;17.10;69.90;;;;;;5089893;28;20451;-74
2021/07/20 03:27:41;;;;;;;12.97;8.37;;;17.10;69.50;;;;;;5089600;28;20842;-74
2021/07/20 03:30:09;;;;;;;15.47;9.00;;;17.00;69.50;;;;;;5089463;28;20464;-74
2021/07/20 03:32:43;;;;;;;9.90;8.63;;;17.10;69.80;;;;;;5088876;28;20462;-74
2021/07/20 03:35:13;;;;;;;11.83;9.63;;;17.10;70.80;;;;;;5076045;28;20523;-74
2021/07/20 03:37:40;;;;;;;11.60;9.07;;;17.00;70.10;;;;;;5076217;28;20871;-74
2021/07/20 03:40:08;;;;;;;12.00;9.30;;;17.00;70.10;;;;;;5076073;28;20472;-74
2021/07/20 03:42:36;;;;;;;13.00;10.13;;;16.90;70.60;;;;;;5076105;28;20465;-74
2021/07/20 03:45:04;;;;;;;15.20;10.07;;;16.90;70.60;;;;;;5076065;28;20444;-74
2021/07/20 03:47:32;;;;;;;16.20;10.13;;;16.90;70.70;;;;;;5076013;28;20444;-74
2021/07/20 03:50:01;;;;;;;12.23;10.27;;;16.90;71.70;;;;;;5075908;28;20464;-74
2021/07/20 03:52:29;;;;;;;12.23;9.50;;;16.90;71.00;;;;;;5075638;28;20946;-74
2021/07/20 03:54:56;;;;;;;11.70;9.90;;;16.80;70.90;;;;;;5075876;28;20456;-74
2021/07/20 03:57:25;;;;;;;14.80;9.70;;;16.90;71.10;;;;;;5075875;28;20460;-74
2021/07/20 03:59:55;;;;;;;17.13;10.63;;;16.90;71.10;;;;;;5075742;28;20539;-74
2021/07/20 04:02:23;;;;;;;12.57;10.30;;;16.90;71.10;;;;;;5075723;28;20472;-74
2021/07/20 04:04:52;;;;;;;12.90;10.40;;;16.80;71.10;;;;;;5075777;28;20433;-74
2021/07/20 04:07:21;;;;;;;13.47;11.00;;;16.90;71.70;;;;;;5075782;28;20449;-74
2021/07/20 04:09:49;;;;;;;16.83;11.27;;;16.80;71.80;;;;;;5075432;28;20473;-73
2021/07/20 04:12:18;;;;;;;17.10;12.40;;;16.80;71.90;;;;;;5075679;28;20440;-74
2021/07/20 04:14:45;;;;;;;16.03;11.70;;;16.90;72.20;;;;;;5075344;28;20938;-74
2021/07/20 04:17:14;;;;;;;17.10;12.23;;;16.80;72.80;;;;;;5075311;28;20930;-74
2021/07/20 04:19:41;;;;;;;17.30;12.70;;;16.80;73.20;;;;;;5075152;28;20930;-75
2021/07/20 04:22:09;;;;;;;19.40;12.73;;;16.80;73.40;;;;;;5075229;28;20480;-74
2021/07/20 04:24:39;;;;;;;15.80;11.27;;;16.80;73.50;;;;;;5075505;28;20452;-74
2021/07/20 04:27:06;;;;;;;14.83;11.17;;;16.90;73.60;;;;;;5075497;28;20445;-74
2021/07/20 04:29:33;;;;;;;16.00;12.20;;;16.90;73.60;;;;;;5075256;28;20445;-74
2021/07/20 04:32:04;;;;;;;17.33;11.73;;;16.90;73.60;;;;;;5075256;28;20463;-74
2021/07/20 04:34:33;;;;;;;17.20;11.47;;;16.90;73.70;;;;;;5075308;28;20429;-74
2021/07/20 04:37:01;;;;;;;17.20;12.30;;;17.00;74.20;;;;;;5075201;28;20433;-74
2021/07/20 04:39:28;;;;;;;15.30;11.63;;;17.00;74.10;;;;;;5075353;28;20441;-73
2021/07/20 04:41:57;;;;;;;16.50;11.33;;;17.00;74.10;;;;;;5075190;28;20467;-74
2021/07/20 04:44:24;;;;;;;20.10;12.90;;;17.00;74.20;;;;;;5074722;28;20467;-74
2021/07/20 04:46:50;;;;;;;19.40;12.17;;;17.00;74.40;;;;;;5074406;28;20440;-74
2021/07/20 04:49:19;;;;;;;17.63;12.47;;;17.10;74.50;;;;;;5074972;28;20498;-74
2021/07/20 04:51:46;;;;;;;18.37;12.80;;;17.10;74.70;;;;;;5074850;28;20869;-74
2021/07/20 04:54:16;;;;;;;21.80;13.97;;;17.10;74.80;;;;;;5074816;28;20448;-74
2021/07/20 04:56:43;;;;;;;17.87;12.70;;;17.10;75.20;;;;;;5074862;28;20451;-74
2021/07/20 04:59:12;;;;;;;15.77;12.87;;;17.10;75.20;;;;;;5074344;28;20535;-74
2021/07/20 05:01:41;;;;;;;19.93;13.10;;;17.10;75.30;;;;;;5074284;28;20875;-74
2021/07/20 05:04:09;;;;;;;19.17;13.40;;;17.20;75.60;;;;;;5074585;28;20487;-74
2021/07/20 05:06:37;;;;;;;18.00;12.13;;;17.20;75.90;;;;;;5074558;28;20428;-74
2021/07/20 05:09:05;;;;;;;20.27;15.13;;;17.20;76.00;;;;;;5074569;28;20436;-74
2021/07/20 05:11:32;;;;;;;20.10;13.70;;;17.20;76.40;;;;;;5074490;28;20475;-74
2021/07/20 05:13:59;;;;;;;19.20;14.00;;;17.20;76.80;;;;;;5074149;28;20439;-74
2021/07/20 05:16:27;;;;;;;19.83;13.80;;;17.20;77.10;;;;;;5074344;28;20522;-74
2021/07/20 05:18:54;;;;;;;19.57;14.43;;;17.20;77.60;;;;;;5074341;28;20783;-74
2021/07/20 05:21:22;;;;;;;17.10;13.57;;;17.20;78.10;;;;;;5073924;28;20488;-74
2021/07/20 05:23:50;;;;;;;20.43;15.20;;;17.20;78.50;;;;;;5073773;28;21000;-74
2021/07/20 05:26:17;;;;;;;23.93;16.17;;;17.20;79.00;;;;;;5074174;28;20460;-74
2021/07/20 05:28:45;;;;;;;26.03;15.10;;;17.20;79.60;;;;;;5074098;28;20481;-74
2021/07/20 05:31:14;;;;;;;29.60;15.57;;;17.20;80.00;;;;;;5073980;28;20797;-74
2021/07/20 05:33:44;;;;;;;21.20;14.03;;;17.10;80.10;;;;;;5074106;28;20451;-74
2021/07/20 05:36:11;;;;;;;21.53;15.60;;;17.20;80.60;;;;;;5074840;28;20448;-74
2021/07/20 05:38:39;;;;;;;20.83;15.37;;;17.20;81.00;;;;;;5073950;28;20428;-74
2021/07/20 05:41:05;;;;;;;23.93;16.37;;;17.10;81.20;;;;;;5074339;28;20464;-74
2021/07/20 05:43:33;;;;;;;25.37;16.07;;;17.20;81.70;;;;;;5073803;28;20490;-74
2021/07/20 05:46:01;;;;;;;20.17;14.50;;;17.20;81.90;;;;;;5073794;28;20459;-74
2021/07/20 05:48:28;;;;;;;24.40;16.40;;;17.20;81.90;;;;;;5073809;28;20444;-74
2021/07/20 05:51:00;;;;;;;24.97;15.97;;;17.30;81.90;;;;;;5073762;28;20464;-74
2021/07/20 05:53:29;;;;;;;22.47;15.80;;;17.30;81.90;;;;;;5073949;28;20449;-74
2021/07/20 05:55:59;;;;;;;26.00;16.30;;;17.30;81.90;;;;;;5073461;28;20480;-74
2021/07/20 05:58:26;;;;;;;24.07;16.43;;;17.40;82.10;;;;;;5073350;28;20938;-74
2021/07/20 06:00:54;;;;;;;28.63;17.40;;;17.40;82.00;;;;;;5073566;28;20476;-74
2021/07/20 06:03:25;;;;;;;22.07;16.20;;;17.50;81.70;;;;;;5073505;28;20499;-74
2021/07/20 06:05:54;;;;;;;28.63;16.30;;;17.50;81.70;;;;;;5073295;28;20433;-74
2021/07/20 06:08:24;;;;;;;24.00;16.10;;;17.60;82.20;;;;;;5073606;28;20432;-74
2021/07/20 06:10:53;;;;;;;24.20;16.10;;;17.70;82.30;;;;;;5073433;28;20468;-74
2021/07/20 06:13:22;;;;;;;24.03;16.43;;;17.80;82.70;;;;;;5073474;28;20469;-74
2021/07/20 06:15:50;;;;;;;25.57;17.57;;;17.90;82.00;;;;;;5073507;28;20468;-75
2021/07/20 06:18:16;;;;;;;25.47;15.80;;;18.00;81.30;;;;;;5073161;28;21064;-74
2021/07/20 06:20:48;;;;;;;26.87;16.57;;;18.10;80.80;;;;;;5073347;28;20483;-74
2021/07/20 06:23:16;;;;;;;26.07;17.90;;;18.20;80.20;;;;;;5073152;28;20512;-74
2021/07/20 06:25:44;;;;;;;20.83;15.50;;;18.30;80.30;;;;;;5073049;28;20456;-75
2021/07/20 06:28:11;;;;;;;23.70;16.43;;;18.40;79.90;;;;;;5074137;28;20801;-74
2021/07/20 06:30:40;;;;;;;23.17;16.73;;;18.50;79.80;;;;;;5073274;28;20464;-74
2021/07/20 06:33:08;;;;;;;30.27;18.10;;;18.60;80.00;;;;;;5072990;28;20836;-74
2021/07/20 06:35:34;;;;;;;23.20;17.90;;;18.70;79.70;;;;;;5073274;28;20448;-75
2021/07/20 06:38:02;;;;;;;21.13;15.37;;;18.90;79.10;;;;;;5073294;28;20455;-75
2021/07/20 06:40:29;;;;;;;22.37;15.97;;;19.00;78.50;;;;;;5073118;28;20471;-75
2021/07/20 06:42:58;;;;;;;25.77;17.43;;;19.00;78.20;;;;;;5073143;28;20479;-75
2021/07/20 06:45:25;;;;;;;23.47;16.20;;;19.10;76.90;;;;;;5073534;28;20625;-75
2021/07/20 06:47:53;;;;;;;22.27;16.60;;;19.20;76.40;;;;;;5073137;28;20447;-74
2021/07/20 06:50:20;;;;;;;24.43;15.40;;;19.30;76.30;;;;;;5073085;28;20464;-73
2021/07/20 06:52:48;;;;;;;26.00;17.77;;;19.40;75.80;;;;;;5073153;28;20441;-73
2021/07/20 06:55:16;;;;;;;23.53;17.30;;;19.40;75.60;;;;;;5073087;28;20809;-75
2021/07/20 06:57:45;;;;;;;20.23;15.40;;;19.60;75.20;;;;;;5073169;28;20429;-75
2021/07/20 07:00:17;;;;;;;26.37;18.00;;;19.60;74.40;;;;;;5072677;28;20492;-73
2021/07/20 07:02:46;;;;;;;20.97;16.90;;;19.60;74.50;;;;;;5072979;28;20429;-73
2021/07/20 07:05:15;;;;;;;27.27;17.23;;;19.70;74.60;;;;;;5072983;28;20497;-73
2021/07/20 07:07:45;;;;;;;22.67;15.60;;;19.80;74.70;;;;;;5072967;28;20452;-75
2021/07/20 07:10:14;;;;;;;18.83;13.80;;;20.00;74.20;;;;;;5076456;28;20461;-75
2021/07/20 07:12:43;;;;;;;20.23;14.93;;;20.20;74.30;;;;;;5076647;28;20448;-75
2021/07/20 07:15:13;;;;;;;25.00;16.50;;;20.40;73.20;;;;;;5076648;28;20451;-75
2021/07/20 07:17:40;;;;;;;18.73;15.07;;;20.60;72.50;;;;;;5076590;28;20452;-75
2021/07/20 07:20:09;;;;;;;19.80;14.67;;;20.60;70.40;;;;;;5076233;28;21005;-75
2021/07/20 07:22:38;;;;;;;20.40;15.50;;;20.70;70.70;;;;;;5076241;28;20460;-75
2021/07/20 07:25:06;;;;;;;22.90;14.07;;;20.80;71.90;;;;;;5076510;28;20467;-75
2021/07/20 07:27:33;;;;;;;24.70;15.63;;;21.00;71.40;;;;;;5076133;28;20444;-75
2021/07/20 07:30:02;;;;;;;18.20;14.20;;;21.20;70.80;;;;;;5076303;28;20475;-75
2021/07/20 07:32:31;;;;;;;17.87;13.47;;;21.40;69.70;;;;;;5076006;28;20861;-75
2021/07/20 07:34:58;;;;;;;17.47;13.80;;;21.60;68.70;;;;;;5076255;28;20475;-73
2021/07/20 07:37:26;;;;;;;16.67;13.80;;;21.80;67.80;;;;;;5076279;28;20815;-75
2021/07/20 07:39:55;;;;;;;21.63;15.20;;;22.10;66.90;;;;;;5076196;28;20521;-75
2021/07/20 07:42:24;;;;;;;18.07;14.00;;;22.30;66.30;;;;;;5076228;28;20447;-74
2021/07/20 07:44:52;;;;;;;23.93;16.10;;;22.50;65.40;;;;;;5076092;28;20488;-73
2021/07/20 07:47:19;;;;;;;17.17;14.30;;;22.70;63.30;;;;;;5076059;28;20468;-73
2021/07/20 07:49:48;;;;;;;19.70;14.43;;;22.90;63.00;;;;;;5076025;28;20433;-73
2021/07/20 07:52:15;;;;;;;16.30;12.50;;;23.10;62.80;;;;;;5076103;28;20436;-74
2021/07/20 07:54:45;;;;;;;19.10;14.63;;;23.30;61.90;;;;;;5075934;28;20437;-73
2021/07/20 07:57:13;;;;;;;18.43;13.70;;;23.60;61.40;;;;;;5076499;28;20441;-74
2021/07/20 07:59:41;;;;;;;17.30;13.50;;;23.70;60.20;;;;;;5075825;28;20452;-73
2021/07/20 08:02:12;;;;;;;17.73;11.57;;;23.90;59.50;;;;;;5075490;28;20440;-73
2021/07/20 08:04:41;;;;;;;15.77;11.93;;;24.20;59.20;;;;;;5075763;28;20865;-73
2021/07/20 08:07:11;;;;;;;15.50;12.80;;;24.40;58.60;;;;;;5075776;28;20433;-73
2021/07/20 08:09:40;;;;;;;16.70;11.73;;;24.60;58.10;;;;;;5075327;28;20441;-73
2021/07/20 08:12:08;;;;;;;14.43;12.80;;;24.80;57.20;;;;;;5075585;28;20467;-73
2021/07/20 08:14:35;;;;;;;16.30;13.20;;;25.00;56.80;;;;;;5075536;28;20452;-74
2021/07/20 08:17:05;;;;;;;20.57;13.40;;;25.20;56.10;;;;;;5075468;28;20498;-74
2021/07/20 08:19:32;;;;;;;16.60;13.70;;;25.40;55.70;;;;;;5075271;28;20828;-73
2021/07/20 08:22:01;;;;;;;13.93;12.33;;;25.60;55.00;;;;;;5074908;28;20460;-73
2021/07/20 08:24:31;;;;;;;17.87;12.00;;;25.70;53.40;;;;;;5075278;28;20484;-74
2021/07/20 08:27:02;;;;;;;14.23;12.70;;;25.70;52.50;;;;;;5075365;28;20520;-74
2021/07/20 08:29:35;;;;;;;17.63;13.30;;;25.80;52.70;;;;;;5074926;28;20929;-72
2021/07/20 08:32:07;;;;;;;13.13;11.83;;;25.90;52.80;;;;;;5075215;28;20494;-73
2021/07/20 08:34:36;;;;;;;12.53;11.23;;;26.00;52.50;;;;;;5075000;28;20469;-73
2021/07/20 08:37:04;;;;;;;11.53;10.37;;;26.20;51.90;;;;;;5074802;28;20934;-75
2021/07/20 08:39:34;;;;;;;14.07;11.40;;;26.30;51.70;;;;;;5075000;28;20429;-72
2021/07/20 08:42:13;;;;;;;15.17;13.53;;;26.40;51.20;;;;;;5075324;28;20452;-74
2021/07/20 08:44:58;;;;;;;15.53;12.90;;;26.40;50.80;;;;;;5074925;28;20494;-73
2021/07/20 08:47:39;;;;;;;15.00;13.00;;;26.40;49.70;;;;;;5074982;28;20429;-73
2021/07/20 08:50:21;;;;;;;14.67;13.10;;;26.40;50.40;;;;;;5074546;28;20490;-73
2021/07/20 08:52:55;;;;;;;14.40;11.60;;;26.50;49.10;;;;;;5074831;28;20485;-75
2021/07/20 08:55:25;;;;;;;11.50;9.70;;;26.60;49.40;;;;;;5074804;28;20432;-75
2021/07/20 08:57:56;;;;;;;15.70;12.33;;;26.90;49.50;;;;;;5074755;28;20429;-75
2021/07/20 09:00:25;;;;;;;15.60;13.93;;;27.30;49.30;;;;;;5074662;28;20471;-75
2021/07/20 09:03:00;;;;;;;14.47;13.00;;;27.60;47.40;;;;;;5074642;28;20421;-74
2021/07/20 09:05:31;;;;;;;17.00;14.50;;;27.70;46.00;;;;;;5074530;28;20471;-75
2021/07/20 09:08:04;;;;;;;16.17;14.20;;;27.80;46.50;;;;;;5074334;28;20911;-75
2021/07/20 09:10:51;;;;;;;14.07;12.67;;;27.50;46.20;;;;;;5074440;28;20475;-75
2021/07/20 09:13:20;;;;;;;16.10;13.77;;;27.40;46.90;;;;;;5074117;28;20921;-75
2021/07/20 09:15:53;;;;;;;14.13;12.70;;;27.40;47.20;;;;;;5074382;28;20483;-75
2021/07/20 09:18:29;;;;;;;17.30;13.90;;;27.30;46.80;;;;;;5074331;28;20517;-75
2021/07/20 09:21:01;;;;;;;18.23;13.27;;;27.10;45.30;;;;;;5074205;28;20467;-75
2021/07/20 09:23:31;;;;;;;14.87;13.10;;;26.90;46.30;;;;;;5074240;28;20425;-75
2021/07/20 09:26:06;;;;;;;13.87;12.57;;;26.70;45.30;;;;;;5073969;28;20429;-75
2021/07/20 09:28:39;;;;;;;13.87;12.37;;;26.60;46.70;;;;;;5074243;28;20439;-75
2021/07/20 09:31:13;;;;;;;15.27;12.70;;;26.40;47.20;;;;;;5073770;28;20468;-75
2021/07/20 09:33:46;;;;;;;14.53;12.53;;;26.50;47.00;;;;;;5074145;28;20417;-75
2021/07/20 09:36:21;;;;;;;14.30;12.10;;;26.60;46.50;;;;;;5073694;28;20460;-75
2021/07/20 09:39:32;;;;;;;17.60;13.23;;;26.70;47.30;;;;;;5073852;28;20432;-74
2021/07/20 09:42:07;;;;;;;17.93;13.60;;;26.80;46.40;;;;;;5038926;28;21012;-74
2021/07/20 09:44:45;;;;;;;13.80;12.40;;;26.70;45.90;;;;;;5073998;28;20518;-74
2021/07/20 09:47:21;;;;;;;15.27;13.67;;;26.70;46.60;;;;;;5073944;28;20420;-74
2021/07/20 09:50:02;;;;;;;14.77;12.70;;;26.70;47.10;;;;;;5073583;28;20898;-74
2021/07/20 09:52:48;;;;;;;15.63;13.30;;;26.60;47.20;;;;;;5073878;28;20436;-74
2021/07/20 09:55:26;;;;;;;13.93;12.53;;;26.40;47.10;;;;;;5073452;28;20910;-74
2021/07/20 09:57:59;;;;;;;17.20;13.97;;;26.30;48.10;;;;;;5073799;28;20436;-74
2021/07/20 10:00:33;;;;;;;13.70;12.27;;;26.30;48.10;;;;;;5074227;28;20465;-75
2021/07/20 10:03:11;;;;;;;14.87;13.37;;;26.30;48.70;;;;;;5075145;28;20437;-75
2021/07/20 10:05:45;;;;;;;14.87;13.27;;;26.70;49.40;;;;;;5073687;28;20469;-75
2021/07/20 10:08:27;;;;;;;15.73;14.03;;;27.10;46.30;;;;;;5073699;28;20428;-73
2021/07/20 10:11:03;;;;;;;20.17;15.60;;;27.30;45.60;;;;;;5073541;28;20464;-75
2021/07/20 10:13:34;;;;;;;19.37;15.00;;;27.20;44.70;;;;;;5073363;28;20913;-74
2021/07/20 10:16:15;;;;;;;18.93;14.50;;;27.00;45.40;;;;;;5074019;28;20436;-75
2021/07/20 10:18:48;;;;;;;14.97;13.50;;;27.00;45.20;;;;;;5073601;28;20486;-74
2021/07/20 10:21:19;;;;;;;15.53;13.10;;;27.40;45.80;;;;;;5073844;28;20464;-74
2021/07/20 10:23:55;;;;;;;19.50;14.13;;;27.90;45.70;;;;;;5073371;28;20429;-74
2021/07/20 10:26:29;;;;;;;14.23;12.10;;;28.30;44.90;;;;;;5073138;28;20920;-74
2021/07/20 10:29:06;;;;;;;13.53;12.13;;;28.60;44.80;;;;;;5073373;28;20502;-74
2021/07/20 10:31:42;;;;;;;11.60;10.50;;;28.90;43.10;;;;;;5073296;28;20510;-74
2021/07/20 10:34:13;;;;;;;12.03;10.80;;;29.10;40.80;;;;;;5073357;28;20830;-74
2021/07/20 10:36:46;;;;;;;19.97;11.70;;;28.90;40.80;;;;;;5073321;28;20478;-74
2021/07/20 10:39:18;;;;;;;14.63;11.20;;;29.10;42.30;;;;;;5073280;28;20432;-73
2021/07/20 10:41:53;;;;;;;15.10;10.90;;;29.30;41.80;;;;;;5072897;28;20468;-73
2021/07/20 10:44:26;;;;;;;12.93;10.80;;;29.70;41.40;;;;;;5075484;28;20466;-73
2021/07/20 10:46:55;;;;;;;11.67;10.47;;;30.30;39.00;;;;;;5077130;28;20436;-75
2021/07/20 10:49:29;;;;;;;12.17;10.97;;;30.50;35.90;;;;;;5076785;28;20432;-74
2021/07/20 10:52:03;;;;;;;11.43;10.30;;;30.70;38.20;;;;;;5076950;28;20437;-75
2021/07/20 10:54:36;;;;;;;10.63;9.53;;;31.40;38.50;;;;;;5077093;28;20432;-74
2021/07/20 10:57:09;;;;;;;10.33;9.10;;;32.30;35.40;;;;;;5077029;28;20428;-75
2021/07/20 10:59:49;;;;;;;11.47;10.37;;;33.30;34.40;;;;;;5076762;28;20428;-74
2021/07/20 11:02:27;;;;;;;12.37;10.53;;;34.40;32.70;;;;;;5076838;28;20440;-75
2021/07/20 11:04:58;;;;;;;12.37;11.20;;;35.20;29.80;;;;;;5076520;28;20919;-75
2021/07/20 11:07:30;;;;;;;11.47;9.73;;;35.60;30.00;;;;;;5076902;28;20435;-73
2021/07/20 11:10:03;;;;;;;15.40;10.60;;;36.20;29.60;;;;;;5076735;28;20543;-73
2021/07/20 11:12:32;;;;;;;11.30;10.20;;;36.90;28.50;;;;;;5076780;28;20432;-73
2021/07/20 11:15:01;;;;;;;11.17;10.20;;;37.60;28.70;;;;;;5076714;28;20179;-74
2021/07/20 11:17:31;;;;;;;10.52;9.63;;;38.30;27.60;;;;;;5076675;28;20214;-75
2021/07/20 11:20:00;;;;;;;11.10;10.07;;;38.90;26.30;;;;;;5076548;28;20222;-73
2021/07/20 11:22:29;;;;;;;11.80;8.55;;;39.40;24.80;;;;;;5075977;28;20728;-73
2021/07/20 11:24:56;;;;;;;11.10;10.10;;;39.90;24.40;;;;;;5076264;28;20300;-75
2021/07/20 11:27:24;;;;;;;11.45;10.27;;;40.40;23.30;;;;;;5076437;28;20212;-74
2021/07/20 11:29:51;;;;;;;10.43;9.50;;;40.60;22.80;;;;;;5076154;28;20240;-75
2021/07/20 11:32:23;;;;;;;10.25;8.88;;;40.90;23.30;;;;;;5076034;28;20186;-72
2021/07/20 11:34:56;;;;;;;10.00;8.98;;;40.80;23.50;;;;;;5073964;28;20597;-72
2021/07/20 11:37:29;;;;;;;9.73;8.25;;;40.60;24.00;;;;;;5074303;28;20178;-73
2021/07/20 11:40:02;;;;;;;9.60;8.70;;;40.80;23.60;;;;;;5075935;28;20228;-75
2021/07/20 11:42:36;;;;;;;11.52;9.90;;;41.30;23.40;;;;;;5075748;28;20316;-74
2021/07/20 11:45:09;;;;;;;9.20;8.40;;;41.70;22.60;;;;;;5075790;28;20704;-75
2021/07/20 11:47:42;;;;;;;8.85;8.10;;;42.10;22.20;;;;;;5076149;28;20217;-74
2021/07/20 11:50:11;;;;;;;9.52;8.63;;;42.40;22.40;;;;;;5076038;28;20229;-74
2021/07/20 11:52:44;;;;;;;9.93;8.93;;;42.70;21.50;;;;;;5075833;28;20198;-75
2021/07/20 11:55:20;;;;;;;10.70;9.77;;;42.90;20.80;;;;;;5075242;28;20553;-75
2021/07/20 11:58:09;;;;;;;10.60;9.63;;;42.20;20.30;;;;;;5075480;28;20529;-74
2021/07/20 12:01:15;;;;;;;10.07;9.27;;;41.40;21.20;;;;;;5075378;28;20222;-75
2021/07/20 12:03:57;;;;;;;9.95;8.93;;;41.30;22.90;;;;;;5075390;28;20209;-75
2021/07/20 12:06:38;;;;;;;9.50;8.65;;;41.80;22.80;;;;;;5075336;28;20660;-76
2021/07/20 12:09:27;;;;;;;9.00;8.18;;;42.30;22.00;;;;;;5075075;28;20533;-74
2021/07/20 12:11:56;;;;;;;10.18;9.32;;;42.90;21.10;;;;;;5075483;28;20222;-75
2021/07/20 12:14:24;;;;;;;10.05;9.07;;;43.30;21.00;;;;;;5075423;28;20186;-75
2021/07/20 12:16:53;;;;;;;10.95;8.90;;;43.10;21.10;;;;;;5075356;28;20206;-75
2021/07/20 12:19:30;;;;;;;10.35;9.30;;;42.90;21.20;;;;;;5075427;28;20245;-75
2021/07/20 12:22:03;;;;;;;8.30;7.60;;;42.60;20.70;;;;;;5075103;28;20675;-75
2021/07/20 12:24:30;;;;;;;9.05;8.15;;;42.40;21.40;;;;;;5075216;28;20202;-76
2021/07/20 12:26:57;;;;;;;9.38;8.57;;;42.60;21.20;;;;;;5075386;28;20212;-75
2021/07/20 12:29:24;;;;;;;10.20;9.20;;;43.00;20.30;;;;;;5075183;28;20190;-74
2021/07/20 12:31:52;;;;;;;9.15;8.35;;;43.50;19.80;;;;;;5074822;28;20660;-75
2021/07/20 12:34:19;;;;;;;8.60;7.90;;;43.80;20.00;;;;;;5075211;28;20198;-75
2021/07/20 12:36:47;;;;;;;8.90;8.20;;;44.00;20.30;;;;;;5075267;28;20553;-75
2021/07/20 12:39:15;;;;;;;9.27;8.57;;;44.10;19.90;;;;;;5074812;28;20335;-74
2021/07/20 12:41:46;;;;;;;8.30;7.50;;;44.20;20.00;;;;;;5074884;28;20232;-75
2021/07/20 12:44:14;;;;;;;8.80;7.90;;;44.40;20.00;;;;;;5074801;28;20186;-75
2021/07/20 12:46:41;;;;;;;10.02;9.23;;;44.90;19.30;;;;;;5074985;28;20259;-74
2021/07/20 12:49:10;;;;;;;9.43;8.57;;;45.30;18.60;;;;;;5074945;28;20186;-74
2021/07/20 12:51:47;;;;;;;10.02;9.13;;;45.60;17.30;;;;;;5074850;28;20222;-76
2021/07/20 12:54:14;;;;;;;9.85;8.98;;;45.60;17.20;;;;;;5074287;28;20272;-75